Time;durP1;ratioP1;P1;durP2;ratioP2;P2;SDS_P1;SDS_P2;PMS_P1;PMS_P2;Temp;Humidity;BMP_temperature;BMP_pressure;BME280_temperature;BME280_humidity;BME280_pressure;Samples;Min_cycle;Max_cycle;Signal;HPM_P1;HPM_P2
2021/06/01 00:01:38;;;;;;;3.97;3.50;;;;;;;12.76;76.81;100458.12;649746;218;24820;-72
2021/06/01 00:04:06;;;;;;;3.23;2.93;;;;;;;12.73;76.48;100459.73;641183;222;23881;-72
2021/06/01 00:06:34;;;;;;;3.80;3.03;;;;;;;12.73;76.38;100458.91;649948;217;24839;-72
2021/06/01 00:09:02;;;;;;;3.70;3.20;;;;;;;12.60;77.30;100459.80;637916;221;24868;-72
2021/06/01 00:11:30;;;;;;;4.97;3.30;;;;;;;12.62;76.30;100459.16;657972;217;23851;-71
2021/06/01 00:13:58;;;;;;;5.33;2.90;;;;;;;12.68;76.44;100459.88;653268;217;24876;-72
2021/06/01 00:16:26;;;;;;;6.20;3.57;;;;;;;12.64;75.92;100449.38;642465;221;24857;-74
2021/06/01 00:18:53;;;;;;;3.43;3.13;;;;;;;12.54;76.37;100456.51;644758;219;27033;-72
2021/06/01 00:21:23;;;;;;;3.90;3.50;;;;;;;12.44;77.04;100458.70;648027;221;27049;-72
2021/06/01 00:23:51;;;;;;;3.43;3.10;;;;;;;12.50;76.77;100461.19;654295;216;23881;-72
2021/06/01 00:26:17;;;;;;;4.10;3.30;;;;;;;12.51;77.46;100464.61;651745;216;24150;-71
2021/06/01 00:28:45;;;;;;;4.13;3.17;;;;;;;12.41;77.32;100460.32;657649;216;30144;-72
2021/06/01 00:31:13;;;;;;;4.23;3.40;;;;;;;12.40;77.63;100463.91;660264;217;23859;-71
2021/06/01 00:33:41;;;;;;;4.20;3.77;;;;;;;12.32;78.21;100471.64;652921;217;24816;-71
2021/06/01 00:36:09;;;;;;;3.90;3.50;;;;;;;12.14;78.86;100471.66;646510;221;23883;-72
2021/06/01 00:38:37;;;;;;;7.33;3.70;;;;;;;12.27;78.90;100462.16;643930;221;23954;-72
2021/06/01 00:41:05;;;;;;;3.93;3.50;;;;;;;12.10;78.75;100464.25;645148;221;24874;-72
2021/06/01 00:43:32;;;;;;;4.97;3.97;;;;;;;12.19;78.64;100461.59;649920;217;23871;-72
2021/06/01 00:46:00;;;;;;;5.03;3.90;;;;;;;12.28;78.31;100459.88;652214;217;23830;-71
2021/06/01 00:48:28;;;;;;;4.93;3.60;;;;;;;12.40;78.56;100465.20;640113;222;24965;-72
2021/06/01 00:50:56;;;;;;;6.63;3.97;;;;;;;12.52;78.64;100468.86;641725;221;23908;-72
2021/06/01 00:53:24;;;;;;;5.70;4.20;;;;;;;12.31;78.39;100462.67;657085;217;24818;-72
2021/06/01 00:55:52;;;;;;;4.50;3.80;;;;;;;12.03;79.08;100468.44;655019;217;25954;-72
2021/06/01 00:58:20;;;;;;;5.70;4.17;;;;;;;12.05;79.13;100469.92;658360;217;23856;-72
2021/06/01 01:01:04;;;;;;;5.20;4.43;;;;;;;11.90;80.21;100468.80;649373;218;24814;-71
2021/06/01 01:03:20;;;;;;;5.30;4.30;;;;;;;11.80;80.70;100462.82;640096;221;24887;-72
2021/06/01 01:05:50;;;;;;;4.97;4.30;;;;;;;11.51;81.42;100475.98;649024;221;24879;-71
2021/06/01 01:08:32;;;;;;;6.90;4.80;;;;;;;11.32;82.32;100481.28;639863;221;24938;-71
2021/06/01 01:10:50;;;;;;;6.43;5.23;;;;;;;11.30;82.49;100484.85;650655;221;24867;-71
2021/06/01 01:13:18;;;;;;;5.23;4.73;;;;;;;11.22;83.45;100479.52;653471;217;23866;-71
2021/06/01 01:15:46;;;;;;;4.60;4.20;;;;;;;11.25;83.30;100475.81;649209;217;28034;-72
2021/06/01 01:18:14;;;;;;;6.20;4.70;;;;;;;11.13;83.58;100481.70;650396;217;24857;-72
2021/06/01 01:20:44;;;;;;;5.40;4.90;;;;;;;11.09;83.60;100477.72;656524;217;24807;-72
2021/06/01 01:23:12;;;;;;;5.20;4.70;;;;;;;11.84;81.25;100466.80;650874;217;32501;-71
2021/06/01 01:25:42;;;;;;;9.27;5.00;;;;;;;11.52;81.27;100471.10;648764;218;24962;-72
2021/06/01 01:28:16;;;;;;;5.63;5.13;;;;;;;11.20;82.48;100464.53;646251;221;24919;-71
2021/06/01 01:30:45;;;;;;;7.75;6.00;;;;;;;11.43;81.21;100460.27;657090;215;32500;-72
2021/06/01 01:33:15;;;;;;;6.10;5.50;;;;;;;11.11;82.65;100464.08;662607;216;23718;-71
2021/06/01 01:35:43;;;;;;;6.47;5.13;;;;;;;10.89;83.52;100467.03;670640;212;24777;-71
2021/06/01 01:38:11;;;;;;;5.87;4.73;;;;;;;10.83;83.85;100471.48;645747;220;24843;-72
2021/06/01 01:40:40;;;;;;;6.33;5.17;;;;;;;10.78;84.16;100475.00;645177;221;24943;-71
2021/06/01 01:43:10;;;;;;;5.80;5.30;;;;;;;11.07;84.02;100469.72;654847;216;43176;-72
2021/06/01 01:45:36;;;;;;;5.90;5.40;;;;;;;10.79;83.99;100480.05;668834;212;24795;-71
2021/06/01 01:50:36;;;;;;;7.57;6.73;;;;;;;10.50;85.74;100475.38;650979;217;24834;-72
2021/06/01 01:53:04;;;;;;;7.03;6.33;;;;;;;10.45;85.90;100478.88;649528;218;24817;-72
2021/06/01 01:55:32;;;;;;;9.40;5.80;;;;;;;10.37;87.07;100479.55;644712;221;24895;-71
2021/06/01 01:58:00;;;;;;;7.50;6.37;;;;;;;10.43;85.91;100476.90;642670;221;24875;-72
2021/06/01 02:00:28;;;;;;;9.30;5.80;;;;;;;10.47;85.98;100472.58;656400;217;26027;-72
2021/06/01 02:02:56;;;;;;;8.03;5.23;;;;;;;10.41;86.71;100473.11;642848;221;25106;-72
2021/06/01 02:05:24;;;;;;;6.72;5.95;;;;;;;10.79;85.23;100477.94;649269;217;32568;-71
2021/06/01 02:07:51;;;;;;;5.47;4.97;;;;;;;10.51;86.12;100478.31;658506;217;23707;-72
2021/06/01 02:10:19;;;;;;;9.03;5.43;;;;;;;10.44;85.98;100470.26;650220;218;24832;-72
2021/06/01 02:12:47;;;;;;;6.77;5.20;;;;;;;10.39;85.97;100472.43;651396;217;24865;-72
2021/06/01 02:15:15;;;;;;;8.03;5.63;;;;;;;10.51;85.89;100473.11;643670;221;24868;-72
2021/06/01 02:17:43;;;;;;;5.70;5.10;;;;;;;10.45;85.74;100468.48;646748;221;24976;-71
2021/06/01 02:20:13;;;;;;;10.00;5.03;;;;;;;10.46;86.04;100474.84;648158;221;24869;-71
2021/06/01 02:25:14;;;;;;;7.03;4.53;;;;;;;10.49;85.59;100475.03;659396;217;24803;-71
2021/06/01 02:27:42;;;;;;;6.87;5.10;;;;;;;10.46;85.75;100476.14;643844;221;24860;-71
2021/06/01 02:30:10;;;;;;;8.93;5.70;;;;;;;10.47;85.32;100480.38;652400;217;24823;-72
2021/06/01 02:32:40;;;;;;;5.17;4.67;;;;;;;10.37;85.61;100466.55;653857;217;23931;-71
2021/06/01 02:35:08;;;;;;;5.83;4.87;;;;;;;10.37;85.40;100476.47;642086;221;24859;-71
2021/06/01 02:37:36;;;;;;;5.20;4.70;;;;;;;10.29;86.05;100474.23;651782;217;24822;-71
2021/06/01 02:40:05;;;;;;;5.13;4.50;;;;;;;10.30;85.84;100477.17;654374;217;28000;-71
2021/06/01 02:42:33;;;;;;;6.23;4.97;;;;;;;10.46;85.18;100476.14;643885;219;25243;-72
2021/06/01 02:45:01;;;;;;;5.70;5.13;;;;;;;10.72;83.43;100468.58;641629;220;32645;-72
2021/06/01 02:47:30;;;;;;;5.47;4.97;;;;;;;10.48;84.24;100469.02;662374;216;24838;-71
2021/06/01 02:49:58;;;;;;;11.07;5.00;;;;;;;10.49;84.71;100471.95;663747;216;24842;-71
2021/06/01 02:52:25;;;;;;;5.63;4.73;;;;;;;10.39;84.89;100472.43;663016;216;24865;-71
2021/06/01 02:54:53;;;;;;;5.70;5.10;;;;;;;10.43;85.14;100469.09;661724;216;24803;-71
2021/06/01 02:57:21;;;;;;;6.00;4.87;;;;;;;10.40;85.42;100467.57;662739;213;24789;-71
2021/06/01 02:59:49;;;;;;;5.37;4.73;;;;;;;10.29;85.14;100474.23;667749;212;24801;-71
2021/06/01 03:02:17;;;;;;;6.73;4.70;;;;;;;10.33;85.24;100475.59;662408;212;24833;-71
2021/06/01 03:04:50;;;;;;;5.70;5.00;;;;;;;10.55;84.28;100467.97;658754;212;33521;-71
2021/06/01 03:07:18;;;;;;;6.47;4.70;;;;;;;10.40;85.28;100479.27;665801;212;24803;-71
2021/06/01 03:09:46;;;;;;;5.73;4.83;;;;;;;10.44;85.14;100474.16;640437;221;24890;-71
2021/06/01 03:12:23;;;;;;;5.20;4.70;;;;;;;10.33;85.33;100466.49;642783;221;24887;-71
2021/06/01 03:14:48;;;;;;;10.37;5.10;;;;;;;10.40;85.35;100469.69;663035;217;25018;-71
2021/06/01 03:17:16;;;;;;;6.77;5.60;;;;;;;10.68;84.46;100458.91;651795;217;35961;-71
2021/06/01 03:19:44;;;;;;;5.30;4.58;;;;;;;10.90;82.77;100460.87;635660;221;32702;-71
2021/06/01 03:22:11;;;;;;;4.50;4.10;;;;;;;10.68;83.51;100462.81;657326;217;23718;-72
2021/06/01 03:24:39;;;;;;;6.03;5.13;;;;;;;10.54;84.52;100456.75;656872;217;24860;-71
2021/06/01 03:27:08;;;;;;;5.50;4.90;;;;;;;10.49;84.28;100456.35;650298;217;24820;-71
2021/06/01 03:29:36;;;;;;;4.93;4.53;;;;;;;10.26;84.93;100458.41;643683;221;24908;-71
2021/06/01 03:32:04;;;;;;;6.23;4.73;;;;;;;10.40;85.19;100459.77;645072;222;24867;-71
2021/06/01 03:34:32;;;;;;;5.30;4.80;;;;;;;10.32;84.84;100459.66;645935;221;24861;-71
2021/06/01 03:37:00;;;;;;;7.43;5.10;;;;;;;10.16;85.52;100477.06;652012;217;23822;-71
2021/06/01 03:39:30;;;;;;;5.57;4.97;;;;;;;10.27;86.01;100470.92;650962;218;24861;-71
2021/06/01 03:41:56;;;;;;;5.90;5.30;;;;;;;10.66;84.25;100463.92;643065;221;32654;-72
2021/06/01 03:44:23;;;;;;;7.90;5.50;;;;;;;10.65;83.32;100461.80;637339;221;32991;-71
2021/06/01 03:46:51;;;;;;;6.10;5.37;;;;;;;10.25;84.95;100461.96;637897;221;23751;-71
2021/06/01 03:49:19;;;;;;;6.20;4.97;;;;;;;10.32;84.77;100467.45;657910;217;24833;-71
2021/06/01 03:51:47;;;;;;;6.77;5.27;;;;;;;10.43;84.70;100469.92;660557;217;24826;-71
2021/06/01 03:54:15;;;;;;;7.77;5.33;;;;;;;10.56;84.84;100467.86;646958;219;24843;-71
2021/06/01 03:56:43;;;;;;;5.53;5.03;;;;;;;11.02;82.97;100464.13;641116;220;24909;-71
2021/06/01 03:59:11;;;;;;;5.53;4.93;;;;;;;11.37;82.05;100462.13;653573;216;24823;-71
2021/06/01 04:01:39;;;;;;;8.40;5.57;;;;;;;11.35;81.48;100452.34;652697;217;24853;-71
2021/06/01 04:04:07;;;;;;;6.10;4.87;;;;;;;11.12;82.27;100457.08;643008;221;24865;-71
2021/06/01 04:06:35;;;;;;;5.27;4.77;;;;;;;10.93;82.98;100468.38;643120;221;23887;-71
2021/06/01 04:09:03;;;;;;;5.20;4.70;;;;;;;10.83;84.42;100474.09;656923;217;24810;-71
2021/06/01 04:11:31;;;;;;;5.30;4.80;;;;;;;11.01;83.50;100460.70;659364;217;24811;-71
2021/06/01 04:13:59;;;;;;;5.13;4.63;;;;;;;11.10;82.67;100459.83;655856;217;24799;-71
2021/06/01 04:16:28;;;;;;;6.83;5.27;;;;;;;11.28;82.71;100467.73;646004;221;24843;-69
2021/06/01 04:18:56;;;;;;;5.60;5.00;;;;;;;11.23;82.26;100464.23;643492;221;24880;-71
2021/06/01 04:21:24;;;;;;;5.40;4.57;;;;;;;11.41;82.11;100468.72;642765;221;24851;-71
2021/06/01 04:23:51;;;;;;;5.23;4.73;;;;;;;11.59;82.17;100465.19;655948;217;24799;-71
2021/06/01 04:26:19;;;;;;;5.93;4.90;;;;;;;11.60;81.09;100465.52;656564;216;28095;-71
2021/06/01 04:28:47;;;;;;;7.03;5.00;;;;;;;11.69;81.04;100457.32;652227;217;27019;-71
2021/06/01 04:31:15;;;;;;;5.90;4.90;;;;;;;11.81;81.83;100456.16;651927;218;24839;-71
2021/06/01 04:33:43;;;;;;;5.13;4.70;;;;;;;11.96;81.38;100465.59;651608;218;24816;-71
2021/06/01 04:36:11;;;;;;;5.57;5.07;;;;;;;12.11;80.13;100457.63;650057;217;25105;-72
2021/06/01 04:38:39;;;;;;;14.50;5.97;;;;;;;12.21;80.20;100452.30;653109;217;24916;-72
2021/06/01 04:41:07;;;;;;;5.17;4.67;;;;;;;12.37;78.83;100451.63;657509;217;24831;-71
2021/06/01 04:43:35;;;;;;;5.13;4.63;;;;;;;12.48;78.45;100447.48;657307;217;24826;-71
2021/06/01 04:46:03;;;;;;;9.20;5.50;;;;;;;12.66;78.07;100447.44;659380;217;24828;-72
2021/06/01 04:48:31;;;;;;;6.50;5.43;;;;;;;12.77;78.50;100445.88;637778;221;25077;-71
2021/06/01 04:50:58;;;;;;;5.50;5.00;;;;;;;12.91;78.43;100447.93;654563;217;24841;-71
2021/06/01 04:53:26;;;;;;;6.45;5.75;;;;;;;13.07;78.57;100441.48;648125;218;32735;-71
2021/06/01 04:55:55;;;;;;;13.30;5.97;;;;;;;13.03;78.13;100438.86;644967;221;22764;-71
2021/06/01 04:58:22;;;;;;;6.83;5.33;;;;;;;13.11;77.73;100435.97;638768;221;24874;-71
2021/06/01 05:00:50;;;;;;;8.80;5.30;;;;;;;13.36;77.24;100438.55;641564;221;24870;-71
2021/06/01 05:03:18;;;;;;;7.23;5.50;;;;;;;13.27;76.67;100429.55;642095;221;23888;-71
2021/06/01 05:05:46;;;;;;;8.10;5.77;;;;;;;13.11;76.37;100424.22;652039;216;24835;-71
2021/06/01 05:08:14;;;;;;;7.55;5.60;;;;;;;13.37;75.78;100431.52;652960;217;42389;-71
2021/06/01 05:10:42;;;;;;;6.97;5.00;;;;;;;13.24;75.68;100429.87;663395;216;27043;-71
2021/06/01 05:13:10;;;;;;;8.10;5.03;;;;;;;13.22;77.12;100426.08;663784;216;24846;-71
2021/06/01 05:15:38;;;;;;;5.70;5.20;;;;;;;13.34;76.91;100435.77;662931;216;23873;-71
2021/06/01 05:18:06;;;;;;;5.63;5.03;;;;;;;13.36;75.99;100432.50;667460;212;24880;-71
2021/06/01 05:20:34;;;;;;;5.63;4.63;;;;;;;13.34;76.46;100438.38;670345;213;23809;-71
2021/06/01 05:23:02;;;;;;;5.00;4.40;;;;;;;13.56;77.49;100436.51;644763;221;23897;-71
2021/06/01 05:25:30;;;;;;;6.47;5.30;;;;;;;13.66;76.82;100434.58;662039;217;27011;-71
2021/06/01 05:27:58;;;;;;;5.93;4.63;;;;;;;13.75;76.64;100431.97;665512;212;23816;-71
2021/06/01 05:30:33;;;;;;;6.37;4.77;;;;;;;13.56;75.53;100426.05;664730;213;24781;-71
2021/06/01 05:33:13;;;;;;;10.27;5.03;;;;;;;13.92;75.14;100435.75;663686;213;23812;-71
2021/06/01 05:35:42;;;;;;;6.90;4.97;;;;;;;14.49;74.71;100425.83;663865;212;24808;-71
2021/06/01 05:38:08;;;;;;;4.67;4.23;;;;;;;14.60;72.77;100421.56;666393;212;23809;-72
2021/06/01 05:40:36;;;;;;;4.37;3.97;;;;;;;14.82;72.17;100415.64;637883;222;24859;-72
2021/06/01 05:43:04;;;;;;;5.63;4.30;;;;;;;14.96;72.99;100423.80;651362;217;24846;-72
2021/06/01 05:45:32;;;;;;;5.07;4.20;;;;;;;15.14;72.26;100423.07;655092;217;23889;-71
2021/06/01 05:48:00;;;;;;;4.27;3.80;;;;;;;15.06;71.54;100420.00;638005;221;24879;-72
2021/06/01 05:50:28;;;;;;;5.83;4.30;;;;;;;14.97;72.05;100423.63;641292;221;24920;-72
2021/06/01 05:52:56;;;;;;;5.97;3.90;;;;;;;15.10;71.05;100415.23;661400;216;24919;-71
2021/06/01 05:55:24;;;;;;;6.63;3.77;;;;;;;15.18;71.37;100421.73;662253;216;23841;-71
2021/06/01 05:57:52;;;;;;;5.83;4.00;;;;;;;15.18;71.06;100415.68;659007;212;32338;-71
2021/06/01 06:00:21;;;;;;;7.30;4.00;;;;;;;15.29;70.79;100412.20;643508;222;23764;-71
2021/06/01 06:02:49;;;;;;;3.97;3.50;;;;;;;15.26;69.14;100405.99;658582;217;24845;-71
2021/06/01 06:05:17;;;;;;;4.60;3.70;;;;;;;15.70;69.25;100411.52;666853;213;24815;-72
2021/06/01 06:07:45;;;;;;;4.90;3.70;;;;;;;15.95;69.42;100412.67;662738;212;24787;-71
2021/06/01 06:10:13;;;;;;;6.23;3.60;;;;;;;16.16;67.14;100396.27;665433;213;24801;-72
2021/06/01 06:12:41;;;;;;;4.50;3.33;;;;;;;16.05;67.03;100385.72;662765;213;23805;-70
2021/06/01 06:15:10;;;;;;;3.60;3.13;;;;;;;15.97;66.73;100391.83;668180;212;24834;-70
2021/06/01 06:17:40;;;;;;;4.27;3.43;;;;;;;16.01;68.76;100404.09;649036;219;24892;-70
2021/06/01 06:20:09;;;;;;;3.90;3.60;;;;;;;16.56;67.48;100397.21;651647;216;32544;-70
2021/06/01 06:22:37;;;;;;;3.70;3.40;;;;;;;16.51;66.43;100398.26;662530;216;23726;-71
2021/06/01 06:25:05;;;;;;;4.03;3.00;;;;;;;16.85;64.97;100390.38;646189;221;24909;-71
2021/06/01 06:27:33;;;;;;;5.00;3.07;;;;;;;16.75;66.30;100404.27;638615;221;24882;-71
2021/06/01 06:30:00;;;;;;;3.43;2.80;;;;;;;16.76;64.89;100400.18;655446;217;23851;-72
2021/06/01 06:32:28;;;;;;;3.60;3.30;;;;;;;17.03;63.86;100389.53;654410;217;43472;-70
2021/06/01 06:34:56;;;;;;;4.70;3.20;;;;;;;16.91;65.12;100391.80;659954;217;23750;-71
2021/06/01 06:37:24;;;;;;;3.90;3.40;;;;;;;16.80;63.58;100404.56;653804;217;24851;-70
2021/06/01 06:39:52;;;;;;;3.40;3.10;;;;;;;16.85;64.09;100396.45;646101;221;24950;-71
2021/06/01 06:42:20;;;;;;;3.13;2.93;;;;;;;16.93;63.99;100389.48;656109;216;24047;-73
2021/06/01 06:44:50;;;;;;;3.57;3.20;;;;;;;16.85;66.42;100398.26;652543;217;24848;-73
2021/06/01 06:47:23;;;;;;;3.13;2.93;;;;;;;16.55;66.65;100392.95;642178;221;24888;-73
2021/06/01 06:49:48;;;;;;;3.00;2.80;;;;;;;16.85;65.36;100387.25;643920;221;24947;-73
2021/06/01 06:52:16;;;;;;;4.50;3.87;;;;;;;17.10;64.69;100382.53;638366;221;24911;-72
2021/06/01 06:54:44;;;;;;;3.53;3.00;;;;;;;17.20;64.97;100378.31;655162;217;24875;-73
2021/06/01 06:57:11;;;;;;;3.07;2.83;;;;;;;17.34;65.52;100381.91;650500;217;23850;-73
2021/06/01 06:59:39;;;;;;;4.50;3.30;;;;;;;17.50;63.61;100374.60;646224;221;24942;-73
2021/06/01 07:02:08;;;;;;;3.10;2.80;;;;;;;17.46;61.74;100368.09;653672;217;23858;-73
2021/06/01 07:04:35;;;;;;;3.00;2.80;;;;;;;17.79;63.27;100375.53;647787;221;25095;-73
2021/06/01 07:07:04;;;;;;;6.30;2.90;;;;;;;17.80;61.67;100370.08;650817;217;32567;-72
2021/06/01 07:09:32;;;;;;;2.97;2.50;;;;;;;17.82;63.84;100384.86;652091;217;22758;-72
2021/06/01 07:12:00;;;;;;;5.10;2.67;;;;;;;17.96;62.81;100378.72;643242;221;23914;-73
2021/06/01 07:14:31;;;;;;;5.03;3.10;;;;;;;18.13;62.04;100365.59;639312;221;28097;-73
2021/06/01 07:16:59;;;;;;;3.23;2.93;;;;;;;17.94;62.92;100371.52;652097;217;23873;-73
2021/06/01 07:19:27;;;;;;;2.83;2.63;;;;;;;18.20;62.80;100372.23;644710;221;23891;-73
2021/06/01 07:21:55;;;;;;;4.70;2.70;;;;;;;18.51;61.38;100362.63;647206;221;27029;-72
2021/06/01 07:24:23;;;;;;;4.33;2.87;;;;;;;19.15;60.35;100363.71;642344;221;23931;-72
2021/06/01 07:26:51;;;;;;;2.83;2.60;;;;;;;18.76;58.46;100345.38;639253;221;24911;-72
2021/06/01 07:29:19;;;;;;;2.80;2.50;;;;;;;18.52;59.73;100351.90;658299;214;23906;-71
2021/06/01 07:31:49;;;;;;;5.73;2.20;;;;;;;18.87;62.09;100359.33;647224;220;23888;-72
2021/06/01 07:34:16;;;;;;;3.07;2.77;;;;;;;18.70;60.99;100363.27;648201;220;24885;-72
2021/06/01 07:36:44;;;;;;;2.83;2.47;;;;;;;18.77;62.30;100361.50;643160;221;24880;-72
2021/06/01 07:39:12;;;;;;;4.73;2.33;;;;;;;18.84;59.46;100354.94;655520;217;24911;-72
2021/06/01 07:41:40;;;;;;;3.53;2.63;;;;;;;19.18;59.55;100356.72;657032;217;23869;-72
2021/06/01 07:44:08;;;;;;;4.90;2.87;;;;;;;19.46;60.06;100346.86;651482;217;32538;-72
2021/06/01 07:46:36;;;;;;;3.23;2.30;;;;;;;19.51;58.78;100345.73;644743;221;26263;-72
2021/06/01 07:49:04;;;;;;;4.70;2.37;;;;;;;19.58;58.59;100341.03;657798;217;24851;-72
2021/06/01 07:51:32;;;;;;;2.43;2.23;;;;;;;19.82;58.59;100325.91;638391;221;23905;-72
2021/06/01 07:54:02;;;;;;;4.13;2.63;;;;;;;20.22;56.33;100321.42;657177;217;23876;-72
2021/06/01 07:56:28;;;;;;;2.00;1.90;;;;;;;20.67;54.06;100309.66;642717;221;23941;-72
2021/06/01 07:58:56;;;;;;;4.23;2.63;;;;;;;20.60;55.36;100307.56;657536;217;26969;-72
2021/06/01 08:01:24;;;;;;;4.13;2.40;;;;;;;20.32;56.87;100310.45;653295;217;24289;-72
2021/06/01 08:03:52;;;;;;;5.03;2.40;;;;;;;20.17;54.09;100300.11;639574;221;24884;-72
2021/06/01 08:06:20;;;;;;;4.33;2.10;;;;;;;20.46;57.50;100298.86;652339;217;24035;-72
2021/06/01 08:08:48;;;;;;;2.40;2.20;;;;;;;20.36;54.67;100291.33;653796;218;23872;-72
2021/06/01 08:11:16;;;;;;;3.10;2.40;;;;;;;20.14;54.96;100294.73;647146;219;23870;-72
2021/06/01 08:13:44;;;;;;;2.63;2.43;;;;;;;21.06;55.34;100292.81;643994;221;23899;-74
2021/06/01 08:16:12;;;;;;;7.73;1.97;;;;;;;21.09;52.32;100280.48;642792;221;23950;-74
2021/06/01 08:18:43;;;;;;;3.60;2.25;;;;;;;21.90;51.65;100280.54;651275;217;32526;-75
2021/06/01 08:21:10;;;;;;;2.17;1.97;;;;;;;21.60;51.31;100271.13;638505;221;22783;-74
2021/06/01 08:23:36;;;;;;;2.73;1.73;;;;;;;21.76;53.73;100279.03;659897;217;23877;-74
2021/06/01 08:26:04;;;;;;;2.90;2.12;;;;;;;21.82;52.98;100272.08;636699;222;32689;-74
2021/06/01 08:28:33;;;;;;;3.10;2.07;;;;;;;21.77;51.44;100262.63;640968;221;22797;-74
2021/06/01 08:31:00;;;;;;;2.30;1.73;;;;;;;22.09;49.52;100260.21;658156;217;23881;-72
2021/06/01 08:33:28;;;;;;;2.20;1.90;;;;;;;22.25;49.12;100246.92;652856;217;24150;-72
2021/06/01 08:35:57;;;;;;;3.33;1.90;;;;;;;22.10;47.74;100245.13;646686;221;23912;-72
2021/06/01 08:38:24;;;;;;;2.10;1.87;;;;;;;22.36;49.94;100240.86;654398;217;24920;-72
2021/06/01 08:40:52;;;;;;;2.73;1.87;;;;;;;22.67;48.76;100251.83;652451;216;24133;-74
2021/06/01 08:43:22;;;;;;;2.40;2.20;;;;;;;22.59;48.29;100247.34;646628;220;23915;-73
2021/06/01 08:45:50;;;;;;;2.23;1.80;;;;;;;22.43;48.12;100242.94;655580;216;24210;-75
2021/06/01 08:48:18;;;;;;;2.17;1.97;;;;;;;22.39;47.82;100238.31;653892;216;23910;-78
2021/06/01 08:50:48;;;;;;;2.80;2.00;;;;;;;22.27;46.04;100232.12;641741;220;32740;-74
2021/06/01 08:53:16;;;;;;;3.00;1.77;;;;;;;22.79;48.10;100235.95;643387;221;22785;-74
2021/06/01 08:55:44;;;;;;;2.20;2.00;;;;;;;23.46;47.16;100229.99;639600;221;43389;-74
2021/06/01 08:58:14;;;;;;;2.00;1.80;;;;;;;23.32;45.79;100228.58;645535;221;22783;-74
2021/06/01 09:00:42;;;;;;;3.23;2.00;;;;;;;23.25;46.92;100231.88;649047;221;23884;-75
2021/06/01 09:03:11;;;;;;;2.03;1.70;;;;;;;23.27;46.59;100233.78;654226;217;23881;-76
2021/06/01 09:05:40;;;;;;;5.17;1.93;;;;;;;23.37;44.36;100216.78;652424;216;23876;-75
2021/06/01 09:08:10;;;;;;;2.20;1.70;;;;;;;23.45;44.22;100207.66;654934;217;23840;-76
2021/06/01 09:10:52;;;;;;;4.17;2.20;;;;;;;23.21;43.75;100209.45;655023;217;23870;-76
2021/06/01 09:13:38;;;;;;;1.97;1.87;;;;;;;23.26;44.94;100191.83;645683;221;27064;-76
2021/06/01 09:21:13;;;;;;;2.87;1.67;;;;;;;23.70;42.57;100188.36;641529;222;23910;-76
2021/06/01 09:23:50;;;;;;;2.10;1.63;;;;;;;23.87;41.46;100183.95;650346;217;27032;-76
2021/06/01 09:26:29;;;;;;;2.80;1.87;;;;;;;23.69;43.43;100176.92;653724;218;23674;-75
2021/06/01 09:28:59;;;;;;;8.63;2.40;;;;;;;24.15;43.15;100187.19;666938;213;23827;-76
2021/06/01 09:31:27;;;;;;;2.03;1.80;;;;;;;24.01;39.21;100175.20;642260;221;23894;-76
2021/06/01 09:33:55;;;;;;;2.40;1.73;;;;;;;24.27;42.22;100173.88;638019;221;24901;-76
2021/06/01 09:36:23;;;;;;;2.50;1.80;;;;;;;24.12;42.00;100166.41;653555;217;23867;-76
2021/06/01 09:38:51;;;;;;;3.40;1.77;;;;;;;24.45;42.60;100175.58;639601;221;23895;-77
2021/06/01 09:41:19;;;;;;;3.07;1.90;;;;;;;24.26;40.55;100176.25;656218;217;24939;-76
2021/06/01 09:43:49;;;;;;;4.50;1.70;;;;;;;24.00;42.06;100166.95;659506;217;24890;-77
2021/06/01 09:46:21;;;;;;;3.33;1.87;;;;;;;24.02;40.98;100168.84;657756;217;23876;-77
2021/06/01 09:48:49;;;;;;;1.93;1.40;;;;;;;24.40;43.02;100175.48;655497;217;26032;-77
2021/06/01 09:51:24;;;;;;;2.47;1.73;;;;;;;24.64;39.33;100158.39;649321;221;24151;-78
2021/06/01 09:53:54;;;;;;;2.00;1.80;;;;;;;24.95;39.66;100154.92;662931;210;32495;-76
2021/06/01 09:56:20;;;;;;;6.00;1.80;;;;;;;25.27;41.10;100158.66;664922;213;23123;-77
2021/06/01 09:58:48;;;;;;;3.77;1.70;;;;;;;25.31;40.43;100162.44;667539;213;23934;-75
2021/06/01 10:01:16;;;;;;;6.40;1.53;;;;;;;24.87;43.23;100167.56;643539;221;24934;-75
2021/06/01 10:03:46;;;;;;;2.20;1.60;;;;;;;24.61;42.13;100158.04;640051;221;23893;-75
2021/06/01 10:06:12;;;;;;;3.07;2.10;;;;;;;24.97;41.91;100160.81;647416;221;23912;-75
2021/06/01 10:08:42;;;;;;;1.87;1.63;;;;;;;25.06;41.48;100160.73;651460;217;23843;-76
2021/06/01 10:11:10;;;;;;;3.53;1.67;;;;;;;25.35;39.25;100145.47;659842;217;23872;-75
2021/06/01 10:13:38;;;;;;;3.20;1.70;;;;;;;25.72;40.23;100149.21;662153;217;26021;-75
2021/06/01 10:16:06;;;;;;;3.47;1.57;;;;;;;25.82;39.05;100148.55;670951;213;24843;-75
2021/06/01 10:18:36;;;;;;;2.10;1.40;;;;;;;25.74;39.91;100146.30;648728;221;23911;-75
2021/06/01 10:21:02;;;;;;;1.87;1.70;;;;;;;25.87;39.16;100142.47;655408;217;23885;-76
2021/06/01 10:23:32;;;;;;;1.95;1.75;;;;;;;25.97;38.06;100139.41;636951;221;32677;-75
2021/06/01 10:25:58;;;;;;;3.13;1.70;;;;;;;25.36;38.81;100146.56;660730;217;22754;-75
2021/06/01 10:28:27;;;;;;;1.70;1.60;;;;;;;24.67;41.79;100151.26;659120;217;23874;-77
2021/06/01 10:30:56;;;;;;;1.73;1.63;;;;;;;24.48;42.05;100145.31;653555;217;23883;-77
2021/06/01 10:33:23;;;;;;;2.03;1.87;;;;;;;24.34;41.66;100151.16;655849;217;24052;-77
2021/06/01 10:35:59;;;;;;;2.47;2.00;;;;;;;24.43;42.20;100144.42;639710;221;23927;-77
2021/06/01 10:48:57;;;;;;;2.50;1.97;;;;;;;24.96;41.23;100126.73;659876;217;28060;-73
2021/06/01 10:53:53;;;;;;;2.10;1.70;;;;;;;25.39;42.39;100131.41;644001;221;24187;-75
2021/06/01 10:56:21;;;;;;;2.08;1.87;;;;;;;25.67;39.05;100121.67;655008;217;32528;-77
2021/06/01 10:59:08;;;;;;;5.60;1.70;;;;;;;26.00;40.11;100116.25;658019;213;22722;-75
2021/06/01 11:04:09;;;;;;;2.77;1.70;;;;;;;24.71;41.36;100105.83;665944;211;23819;-75
2021/06/01 11:07:11;;;;;;;1.77;1.60;;;;;;;24.28;40.75;100098.39;666221;212;26041;-75
2021/06/01 11:09:47;;;;;;;4.07;1.50;;;;;;;24.21;40.95;100100.37;640491;221;23899;-74
2021/06/01 11:12:26;;;;;;;3.00;1.90;;;;;;;24.71;42.98;100115.14;645106;220;27106;-75
2021/06/01 11:14:54;;;;;;;2.20;1.57;;;;;;;24.28;42.38;100111.16;644680;220;23902;-75
2021/06/01 11:17:33;;;;;;;3.10;1.43;;;;;;;24.42;40.03;100109.58;649491;221;23900;-75
2021/06/01 11:20:08;;;;;;;2.27;2.07;;;;;;;24.53;40.16;100107.39;646173;221;23901;-75
2021/06/01 11:22:39;;;;;;;2.00;1.90;;;;;;;24.88;43.13;100109.30;653690;217;28048;-75
2021/06/01 11:28:55;;;;;;;2.57;2.00;;;;;;;24.51;41.81;100106.30;650631;218;27018;-75
2021/06/01 11:33:16;;;;;;;1.90;1.80;;;;;;;24.86;43.12;100098.63;660163;212;23803;-74
2021/06/01 11:35:44;;;;;;;2.10;1.90;;;;;;;24.81;43.26;100098.03;663637;212;23830;-75
2021/06/01 11:38:17;;;;;;;1.90;1.80;;;;;;;24.49;43.56;100108.39;663946;213;23814;-75
2021/06/01 11:43:20;;;;;;;6.40;1.97;;;;;;;25.09;42.87;100101.69;664504;213;23818;-75
2021/06/01 11:45:52;;;;;;;3.50;1.90;;;;;;;25.01;44.37;100100.75;642878;221;23895;-75
2021/06/01 11:48:28;;;;;;;3.87;1.70;;;;;;;25.07;42.00;100081.16;656550;217;23842;-75
2021/06/01 11:51:11;;;;;;;2.73;1.63;;;;;;;24.88;42.94;100088.02;641703;221;24907;-75
2021/06/01 11:53:48;;;;;;;2.40;2.10;;;;;;;25.29;44.65;100089.18;653657;217;27035;-75
2021/06/01 11:56:19;;;;;;;1.73;1.63;;;;;;;24.92;42.98;100080.38;650957;217;24867;-75
2021/06/01 12:04:47;;;;;;;3.10;1.70;;;;;;;25.21;39.70;100067.79;658997;212;24122;-75
2021/06/01 12:12:52;;;;;;;3.47;2.00;;;;;;;25.24;42.19;100069.95;661717;212;32654;-76
2021/06/01 12:17:53;;;;;;;2.90;1.80;;;;;;;25.57;44.38;100062.92;641444;220;23900;-75
2021/06/01 12:20:20;;;;;;;8.13;1.80;;;;;;;26.06;40.76;100052.34;657033;216;23893;-75